Time;durP1;ratioP1;P1;durP2;ratioP2;P2;SDS_P1;SDS_P2;PMS_P1;PMS_P2;Temp;Humidity;BMP_temperature;BMP_pressure;BME280_temperature;BME280_humidity;BME280_pressure;Samples;Min_cycle;Max_cycle;Signal;HPM_P1;HPM_P2
2022/08/17 00:02:14;;;;;;;16.98;14.60;;;21.80;66.40;;;;;;4955643;28;20134;-74
2022/08/17 00:04:42;;;;;;;17.83;15.30;;;21.80;66.40;;;;;;4954967;28;20803;-73
2022/08/17 00:07:09;;;;;;;18.65;14.23;;;21.70;66.40;;;;;;4971878;28;20985;-73
2022/08/17 00:09:36;;;;;;;19.23;15.50;;;21.70;66.70;;;;;;4971027;28;20604;-73
2022/08/17 00:12:04;;;;;;;18.90;15.48;;;21.70;66.90;;;;;;4971357;28;20252;-73
2022/08/17 00:14:31;;;;;;;18.13;15.77;;;21.70;67.20;;;;;;4955604;28;20051;-74
2022/08/17 00:16:59;;;;;;;19.67;16.17;;;21.70;67.20;;;;;;4955516;28;20058;-73
2022/08/17 00:19:27;;;;;;;19.88;16.15;;;21.70;67.30;;;;;;4972541;28;20063;-73
2022/08/17 00:21:58;;;;;;;17.93;15.33;;;21.60;67.50;;;;;;4971523;28;20134;-73
2022/08/17 00:24:27;;;;;;;20.00;15.63;;;21.60;67.80;;;;;;4971519;28;20363;-74
2022/08/17 00:26:54;;;;;;;19.35;15.70;;;21.50;67.70;;;;;;4971958;28;20051;-73
2022/08/17 00:29:21;;;;;;;20.55;16.63;;;21.50;67.50;;;;;;4955433;28;20496;-73
2022/08/17 00:31:48;;;;;;;20.58;15.73;;;21.50;67.50;;;;;;4971315;28;20090;-73
2022/08/17 00:34:16;;;;;;;20.13;14.27;;;21.50;67.60;;;;;;4971151;28;20047;-73
2022/08/17 00:36:43;;;;;;;20.13;15.65;;;21.50;67.40;;;;;;4973882;28;20335;-74
2022/08/17 00:39:10;;;;;;;19.38;15.63;;;21.50;67.40;;;;;;4954536;28;20053;-73
2022/08/17 00:41:37;;;;;;;18.70;15.55;;;21.50;67.50;;;;;;4955036;28;20609;-73
2022/08/17 00:44:05;;;;;;;19.70;15.32;;;21.50;67.50;;;;;;4964951;28;20481;-73
2022/08/17 00:46:35;;;;;;;17.53;14.77;;;21.50;67.40;;;;;;4974072;28;20046;-73
2022/08/17 00:49:03;;;;;;;17.10;14.25;;;21.50;67.60;;;;;;4974139;28;20255;-73
2022/08/17 00:51:37;;;;;;;15.70;13.30;;;21.40;67.60;;;;;;4991576;28;20055;-73
2022/08/17 00:54:10;;;;;;;16.70;13.27;;;21.40;67.60;;;;;;4992025;28;20051;-73
2022/08/17 00:56:42;;;;;;;15.75;13.02;;;21.40;67.40;;;;;;4992105;28;20050;-73
2022/08/17 00:59:13;;;;;;;19.57;15.97;;;21.40;67.20;;;;;;4991636;28;20108;-73
2022/08/17 01:01:41;;;;;;;21.02;16.25;;;21.30;67.50;;;;;;4974123;28;20262;-73
2022/08/17 01:04:08;;;;;;;21.73;16.65;;;21.30;67.70;;;;;;4974042;28;20055;-73
2022/08/17 01:06:37;;;;;;;24.95;17.98;;;21.30;67.90;;;;;;4974123;28;20063;-73
2022/08/17 01:09:04;;;;;;;24.08;17.02;;;21.30;68.10;;;;;;4990245;28;20047;-73
2022/08/17 01:11:35;;;;;;;20.70;15.40;;;21.20;68.40;;;;;;4990101;28;20166;-73
2022/08/17 01:14:02;;;;;;;21.63;17.35;;;21.20;68.70;;;;;;4973789;28;20310;-73
2022/08/17 01:16:30;;;;;;;20.95;16.38;;;21.20;68.50;;;;;;4991186;28;20088;-73
2022/08/17 01:19:00;;;;;;;21.92;16.90;;;21.20;68.50;;;;;;4974159;28;20178;-73
2022/08/17 01:21:36;;;;;;;22.48;16.42;;;21.10;68.40;;;;;;4971140;28;20048;-73
2022/08/17 01:24:04;;;;;;;24.67;18.00;;;21.10;68.00;;;;;;4972308;28;20126;-74
2022/08/17 01:26:33;;;;;;;25.50;19.48;;;21.10;68.10;;;;;;4972088;28;20354;-73
2022/08/17 01:29:01;;;;;;;23.13;17.98;;;21.10;68.10;;;;;;4971639;28;20054;-74
2022/08/17 01:31:32;;;;;;;27.98;20.65;;;21.10;68.10;;;;;;4970891;28;20055;-73
2022/08/17 01:34:01;;;;;;;25.77;19.65;;;21.10;68.30;;;;;;4970573;28;20055;-73
2022/08/17 01:36:28;;;;;;;26.87;20.20;;;21.10;68.40;;;;;;4970966;28;20043;-73
2022/08/17 01:38:55;;;;;;;24.65;18.88;;;21.10;68.70;;;;;;4970429;28;20259;-73
2022/08/17 01:41:24;;;;;;;27.20;20.63;;;21.10;68.90;;;;;;4954378;28;20130;-73
2022/08/17 01:43:54;;;;;;;26.50;20.73;;;21.10;69.30;;;;;;4971719;28;20063;-73
2022/08/17 01:46:25;;;;;;;23.52;18.65;;;21.10;69.50;;;;;;4971755;28;20051;-73
2022/08/17 01:48:53;;;;;;;20.87;16.40;;;21.00;69.70;;;;;;4970152;28;20118;-73
2022/08/17 01:51:20;;;;;;;19.95;15.45;;;21.00;69.40;;;;;;4970564;28;20666;-73
2022/08/17 01:53:51;;;;;;;17.77;14.60;;;21.00;69.50;;;;;;4965608;28;20522;-73
2022/08/17 01:56:22;;;;;;;19.42;15.80;;;21.00;69.60;;;;;;4935343;28;20162;-73
2022/08/17 01:58:51;;;;;;;17.60;14.82;;;21.00;69.70;;;;;;4952323;28;20423;-73
2022/08/17 02:01:20;;;;;;;17.30;13.87;;;20.90;69.70;;;;;;4967038;28;20044;-73
2022/08/17 02:03:47;;;;;;;15.70;13.88;;;20.90;69.60;;;;;;4967161;28;20315;-73
2022/08/17 02:06:14;;;;;;;18.05;14.25;;;20.90;69.50;;;;;;4952245;28;20134;-73
2022/08/17 02:08:41;;;;;;;17.92;14.25;;;20.90;69.30;;;;;;4966584;28;20124;-73
2022/08/17 02:11:10;;;;;;;19.45;14.95;;;20.90;69.10;;;;;;4966788;28;20048;-73
2022/08/17 02:13:37;;;;;;;19.83;15.37;;;20.90;69.10;;;;;;4952299;28;20047;-73
2022/08/17 02:16:06;;;;;;;21.75;15.95;;;20.80;69.00;;;;;;4966877;28;20280;-73
2022/08/17 02:18:33;;;;;;;19.42;14.25;;;20.80;69.00;;;;;;4967277;28;20472;-73
2022/08/17 02:21:01;;;;;;;17.45;13.95;;;20.80;69.10;;;;;;4966678;28;20052;-73
2022/08/17 02:23:30;;;;;;;19.15;15.60;;;20.80;69.30;;;;;;4966984;28;20179;-73
2022/08/17 02:25:59;;;;;;;22.00;16.70;;;20.80;69.50;;;;;;4935066;28;20087;-73
2022/08/17 02:28:27;;;;;;;21.65;16.33;;;20.70;69.50;;;;;;4968580;28;20253;-73
2022/08/17 02:30:56;;;;;;;24.35;17.15;;;20.70;69.70;;;;;;4969941;28;20573;-73
2022/08/17 02:33:24;;;;;;;21.42;16.85;;;20.70;69.50;;;;;;4955285;28;20433;-73
2022/08/17 02:35:51;;;;;;;23.88;18.40;;;20.70;69.70;;;;;;4969530;28;20051;-73
2022/08/17 02:38:18;;;;;;;29.57;21.60;;;20.70;69.90;;;;;;4970485;28;20136;-73
2022/08/17 02:40:46;;;;;;;26.35;20.15;;;20.70;70.50;;;;;;4954508;28;20256;-73
2022/08/17 02:43:13;;;;;;;28.35;20.88;;;20.60;70.70;;;;;;4955174;28;20059;-73
2022/08/17 02:45:40;;;;;;;24.65;19.17;;;20.60;71.00;;;;;;4954815;28;20056;-73
2022/08/17 02:48:07;;;;;;;22.98;17.23;;;20.60;71.20;;;;;;4955152;28;20054;-73
2022/08/17 02:50:35;;;;;;;22.57;17.03;;;20.60;71.50;;;;;;4969043;28;20055;-73
2022/08/17 02:53:03;;;;;;;63.38;19.27;;;20.60;71.70;;;;;;4969543;28;20323;-73
2022/08/17 02:55:34;;;;;;;45.33;20.65;;;20.60;71.70;;;;;;4955136;28;20504;-73
2022/08/17 02:58:02;;;;;;;35.88;20.73;;;20.50;71.70;;;;;;4969664;28;20047;-73
2022/08/17 03:00:33;;;;;;;28.02;20.25;;;20.50;71.60;;;;;;4954440;28;20126;-73
2022/08/17 03:03:01;;;;;;;29.60;21.00;;;20.50;71.50;;;;;;4984178;28;20062;-73
2022/08/17 03:05:31;;;;;;;30.63;21.40;;;20.50;71.80;;;;;;4975977;28;20262;-73
2022/08/17 03:07:59;;;;;;;28.85;21.50;;;20.50;71.90;;;;;;4993793;28;20169;-73
2022/08/17 03:10:26;;;;;;;29.40;21.38;;;20.50;72.10;;;;;;4975691;28;20134;-73
2022/08/17 03:12:54;;;;;;;26.75;20.10;;;20.50;72.40;;;;;;4992144;28;20054;-73
2022/08/17 03:15:23;;;;;;;24.83;18.67;;;20.50;72.20;;;;;;4975796;28;20149;-73
2022/08/17 03:17:51;;;;;;;25.02;18.58;;;20.50;72.30;;;;;;4975938;28;20644;-73
2022/08/17 03:20:19;;;;;;;23.98;18.15;;;20.50;71.90;;;;;;4992930;28;20058;-73
2022/08/17 03:22:48;;;;;;;20.80;16.63;;;20.50;72.00;;;;;;4993515;28;20141;-73
2022/08/17 03:25:20;;;;;;;21.15;16.80;;;20.50;72.00;;;;;;4975666;28;20051;-73
2022/08/17 03:27:47;;;;;;;20.83;16.03;;;20.50;72.10;;;;;;4975524;28;20054;-73
2022/08/17 03:30:14;;;;;;;20.77;16.08;;;20.50;72.00;;;;;;4975523;28;20247;-73
2022/08/17 03:32:44;;;;;;;20.20;15.50;;;20.50;72.00;;;;;;4975773;28;20125;-73
2022/08/17 03:35:14;;;;;;;19.10;15.70;;;20.40;72.10;;;;;;4993283;28;20059;-73
2022/08/17 03:37:41;;;;;;;19.83;15.25;;;20.40;71.70;;;;;;4976183;28;20588;-73
2022/08/17 03:40:09;;;;;;;18.47;14.80;;;20.30;71.50;;;;;;4972915;28;20055;-73
2022/08/17 03:42:40;;;;;;;18.08;14.05;;;20.30;71.60;;;;;;4955953;28;20304;-73
2022/08/17 03:45:11;;;;;;;18.77;14.60;;;20.30;71.30;;;;;;4973502;28;20055;-73
2022/08/17 03:58:44;;;;;;;25.60;19.20;;;20.30;71.20;;;;;;4971872;28;20065;-73
2022/08/17 04:01:12;;;;;;;22.83;17.73;;;20.30;71.60;;;;;;4972699;28;20051;-73
2022/08/17 04:03:39;;;;;;;24.20;18.52;;;20.30;71.40;;;;;;4971621;28;20074;-73
2022/08/17 04:06:06;;;;;;;25.87;19.83;;;20.30;71.40;;;;;;4955269;28;20158;-73
2022/08/17 04:08:33;;;;;;;25.95;18.63;;;20.30;71.90;;;;;;4971728;28;20247;-73
2022/08/17 04:11:01;;;;;;;27.35;20.08;;;20.30;72.00;;;;;;4953781;28;20122;-74
2022/08/17 04:13:28;;;;;;;26.45;19.85;;;20.20;72.10;;;;;;4974628;23;20048;-73
2022/08/17 04:15:58;;;;;;;26.65;19.35;;;20.20;72.20;;;;;;4987799;28;20429;-73
2022/08/17 04:18:25;;;;;;;23.50;17.33;;;20.20;72.50;;;;;;4987407;28;20607;-73
2022/08/17 04:20:52;;;;;;;26.33;18.60;;;20.20;72.70;;;;;;4987164;28;20296;-73
2022/08/17 04:23:19;;;;;;;24.10;17.38;;;20.10;72.70;;;;;;4970880;28;20130;-73
2022/08/17 04:25:49;;;;;;;28.77;19.33;;;20.10;72.90;;;;;;4972712;28;20055;-73
2022/08/17 04:28:17;;;;;;;24.48;19.00;;;20.10;73.10;;;;;;4972759;28;20465;-73
2022/08/17 04:30:45;;;;;;;24.90;19.17;;;20.10;73.00;;;;;;4983964;28;20055;-73
2022/08/17 04:33:15;;;;;;;24.05;18.20;;;20.10;73.10;;;;;;4959535;28;20375;-73
2022/08/17 04:35:46;;;;;;;24.77;18.95;;;20.00;73.00;;;;;;4960808;28;20206;-73
2022/08/17 04:38:15;;;;;;;24.77;18.42;;;20.00;73.20;;;;;;4949061;28;20051;-73
2022/08/17 04:43:28;;;;;;;16.97;13.10;;;20.00;73.40;;;;;;4972123;28;20098;-76
2022/08/17 04:45:57;;;;;;;29.42;22.63;;;20.10;73.40;;;;;;4971543;28;20390;-76
2022/08/17 04:48:27;;;;;;;25.30;19.23;;;20.00;73.50;;;;;;4991533;28;20598;-76
2022/08/17 04:50:54;;;;;;;25.55;18.35;;;20.00;73.70;;;;;;4990717;28;20058;-76
2022/08/17 04:53:22;;;;;;;26.52;19.88;;;20.10;73.50;;;;;;4989664;28;20042;-77
2022/08/17 04:55:52;;;;;;;27.17;19.43;;;20.10;73.60;;;;;;4990531;28;20057;-76
2022/08/17 04:58:19;;;;;;;28.15;19.60;;;20.10;74.40;;;;;;4991446;28;20274;-77
2022/08/17 05:00:46;;;;;;;26.83;19.58;;;20.00;74.40;;;;;;4989907;28;20059;-77
2022/08/17 05:03:13;;;;;;;29.25;20.77;;;20.10;74.90;;;;;;4990045;28;20058;-76
2022/08/17 05:05:48;;;;;;;27.70;19.73;;;20.00;75.00;;;;;;4990290;28;20559;-76
2022/08/17 05:08:17;;;;;;;25.97;18.37;;;20.00;75.00;;;;;;4970949;28;20055;-81
2022/08/17 05:10:44;;;;;;;27.88;18.52;;;20.00;75.20;;;;;;4962617;28;20284;-80
2022/08/17 05:13:14;;;;;;;25.27;18.35;;;20.00;75.40;;;;;;4952325;28;20051;-82
2022/08/17 05:15:42;;;;;;;26.80;18.40;;;20.00;75.50;;;;;;4961723;28;20058;-79
2022/08/17 05:18:09;;;;;;;27.77;19.48;;;20.10;76.00;;;;;;4846623;28;20044;-79
2022/08/17 05:20:39;;;;;;;25.87;18.30;;;20.00;76.40;;;;;;4962658;28;20059;-80
2022/08/17 05:23:10;;;;;;;26.52;18.38;;;20.00;76.40;;;;;;4951451;28;20287;-79
2022/08/17 05:25:40;;;;;;;26.15;20.10;;;20.00;76.60;;;;;;4951379;28;20098;-79
2022/08/17 05:28:09;;;;;;;25.75;17.67;;;20.00;76.20;;;;;;4950968;28;20062;-80
2022/08/17 05:30:38;;;;;;;27.05;18.58;;;20.00;76.20;;;;;;4950708;28;20582;-80
2022/08/17 05:33:07;;;;;;;27.60;18.70;;;20.10;76.10;;;;;;4943839;28;20505;-83
2022/08/17 05:35:38;;;;;;;25.13;18.50;;;20.10;75.80;;;;;;4951327;28;20262;-82
2022/08/17 05:38:08;;;;;;;26.60;18.60;;;20.10;75.80;;;;;;4925810;28;20052;-82
2022/08/17 05:40:36;;;;;;;25.95;18.23;;;20.20;75.80;;;;;;4939375;28;20103;-84
2022/08/17 05:43:09;;;;;;;26.10;18.63;;;20.30;76.20;;;;;;4949403;28;20502;-77
2022/08/17 05:45:42;;;;;;;30.63;20.73;;;20.30;76.50;;;;;;4950209;28;20051;-83
2022/08/17 05:48:09;;;;;;;30.60;20.83;;;20.30;76.30;;;;;;4950552;28;20254;-78
2022/08/17 05:50:44;;;;;;;28.88;19.17;;;20.30;76.10;;;;;;4950427;28;20103;-83
2022/08/17 05:53:22;;;;;;;27.13;20.10;;;20.30;76.10;;;;;;4935221;28;20064;-78
2022/08/17 05:56:00;;;;;;;25.38;18.30;;;20.30;76.00;;;;;;4950818;28;20507;-87
2022/08/17 05:58:32;;;;;;;26.97;18.83;;;20.40;76.30;;;;;;4950581;28;20071;-83
2022/08/17 06:01:07;;;;;;;26.80;19.65;;;20.40;76.20;;;;;;4966841;28;20324;-80
2022/08/17 06:03:47;;;;;;;25.15;19.02;;;20.50;76.60;;;;;;4953598;28;20063;-82
2022/08/17 06:06:30;;;;;;;26.90;19.02;;;20.50;76.80;;;;;;4955827;28;20051;-77
2022/08/17 06:09:08;;;;;;;28.08;19.90;;;20.50;76.80;;;;;;4954100;28;20918;-80
2022/08/17 06:11:44;;;;;;;30.77;21.80;;;20.50;76.50;;;;;;4954376;28;20135;-81
2022/08/17 06:14:26;;;;;;;22.95;16.85;;;20.50;76.60;;;;;;4944370;28;20328;-81
2022/08/17 06:17:00;;;;;;;30.13;20.77;;;20.50;75.80;;;;;;4948206;28;20122;-80
2022/08/17 06:19:34;;;;;;;28.27;20.45;;;20.50;76.60;;;;;;4945154;28;20058;-84
2022/08/17 06:22:02;;;;;;;29.13;20.48;;;20.60;76.50;;;;;;4941995;28;20406;-86
2022/08/17 06:24:35;;;;;;;29.07;19.30;;;20.50;76.80;;;;;;4938434;28;20055;-78
2022/08/17 06:27:08;;;;;;;27.65;21.98;;;20.60;77.00;;;;;;4954731;28;20254;-80
2022/08/17 06:29:42;;;;;;;27.95;19.83;;;20.60;77.10;;;;;;4953484;28;20052;-80
2022/08/17 06:32:11;;;;;;;28.20;20.55;;;20.60;77.20;;;;;;4952561;28;20592;-80
2022/08/17 06:34:39;;;;;;;25.35;18.17;;;20.60;77.10;;;;;;4967816;28;20221;-79
2022/08/17 06:37:27;;;;;;;30.07;21.80;;;20.60;76.60;;;;;;4952550;28;20051;-79
2022/08/17 06:40:11;;;;;;;30.40;22.17;;;20.60;76.70;;;;;;4939787;28;20639;-82
2022/08/17 06:42:46;;;;;;;32.58;23.52;;;20.60;77.90;;;;;;4936316;29;20052;-80
2022/08/17 06:45:17;;;;;;;31.23;23.20;;;20.60;78.10;;;;;;4951821;28;20079;-79
2022/08/17 06:47:50;;;;;;;34.88;23.98;;;20.60;78.40;;;;;;4953148;28;20062;-80
2022/08/17 06:50:21;;;;;;;29.30;20.60;;;20.50;78.60;;;;;;4952494;28;20130;-79
2022/08/17 06:52:54;;;;;;;26.00;19.33;;;20.50;78.40;;;;;;4952278;28;20292;-80
2022/08/17 06:55:28;;;;;;;32.78;23.00;;;20.50;77.90;;;;;;4953904;28;20864;-80
2022/08/17 06:58:00;;;;;;;30.73;21.23;;;20.60;78.10;;;;;;4954166;28;20051;-79
2022/08/17 07:00:33;;;;;;;30.27;21.70;;;20.60;78.50;;;;;;4954392;28;20079;-79
2022/08/17 07:03:05;;;;;;;31.40;21.90;;;20.60;78.50;;;;;;4952633;28;20127;-79
2022/08/17 07:05:37;;;;;;;31.15;21.05;;;20.60;78.70;;;;;;4949412;28;20818;-78
2022/08/17 07:08:10;;;;;;;35.65;24.50;;;20.70;78.00;;;;;;4953474;28;20055;-78
2022/08/17 07:10:45;;;;;;;30.55;21.27;;;20.70;79.10;;;;;;4950758;28;20150;-78
2022/08/17 07:13:34;;;;;;;36.75;25.15;;;20.70;78.70;;;;;;4941778;28;20600;-78
2022/08/17 07:16:13;;;;;;;31.63;22.37;;;20.70;79.50;;;;;;4949900;28;20548;-77
2022/08/17 07:18:42;;;;;;;33.67;23.15;;;20.70;78.60;;;;;;4950364;28;20308;-78
2022/08/17 07:21:17;;;;;;;34.30;23.80;;;20.70;79.00;;;;;;4950189;28;20672;-78
2022/08/17 07:23:59;;;;;;;39.65;25.15;;;20.80;79.20;;;;;;4944830;28;20506;-78
2022/08/17 07:26:28;;;;;;;42.10;26.70;;;20.80;79.50;;;;;;4942823;28;20147;-80
2022/08/17 07:28:56;;;;;;;40.40;26.70;;;20.80;79.30;;;;;;4946896;28;20142;-80
2022/08/17 07:31:25;;;;;;;39.03;24.58;;;20.80;79.80;;;;;;4954590;28;20256;-79
2022/08/17 07:34:05;;;;;;;40.40;25.73;;;20.70;79.70;;;;;;4942361;28;20800;-78
2022/08/17 07:36:33;;;;;;;36.67;24.63;;;20.70;79.50;;;;;;4953576;28;20068;-79
2022/08/17 07:39:02;;;;;;;36.17;23.98;;;20.80;80.00;;;;;;4953572;28;20052;-79
2022/08/17 07:41:35;;;;;;;37.60;23.93;;;20.80;79.90;;;;;;4966702;28;20098;-79
2022/08/17 07:44:02;;;;;;;40.47;25.23;;;20.80;79.60;;;;;;4973512;28;20256;-79
2022/08/17 07:49:21;;;;;;;36.13;23.75;;;20.80;79.10;;;;;;4971895;28;20047;-79
2022/08/17 07:52:00;;;;;;;40.97;26.65;;;20.90;79.00;;;;;;4972663;28;20062;-79
2022/08/17 07:54:31;;;;;;;38.03;25.33;;;20.90;79.20;;;;;;4972684;28;20040;-80
2022/08/17 07:57:23;;;;;;;32.72;22.40;;;20.90;79.40;;;;;;4966703;28;20273;-80
2022/08/17 08:00:08;;;;;;;43.95;28.02;;;21.00;79.30;;;;;;4965100;28;20056;-79
2022/08/17 08:02:57;;;;;;;44.35;28.83;;;21.00;78.80;;;;;;4965201;28;20059;-78
2022/08/17 08:05:26;;;;;;;40.58;26.30;;;21.10;79.60;;;;;;4957330;28;20060;-78
2022/08/17 08:07:56;;;;;;;43.87;27.10;;;21.10;80.10;;;;;;4946470;28;20056;-78
2022/08/17 08:10:31;;;;;;;47.20;27.65;;;21.10;79.80;;;;;;4956770;28;20270;-79
2022/08/17 08:13:07;;;;;;;43.95;29.15;;;21.20;79.70;;;;;;4948190;28;20082;-78
2022/08/17 08:15:38;;;;;;;41.15;28.33;;;21.20;80.00;;;;;;4959132;28;20518;-79
2022/08/17 08:18:20;;;;;;;43.92;28.30;;;21.30;80.30;;;;;;4969584;28;20098;-79
2022/08/17 08:20:50;;;;;;;36.90;23.90;;;21.30;79.40;;;;;;4956256;28;20104;-78
2022/08/17 08:23:26;;;;;;;43.03;27.73;;;21.30;79.70;;;;;;4955299;28;20249;-78
2022/08/17 08:26:15;;;;;;;44.13;28.95;;;21.40;79.80;;;;;;4948859;28;20054;-78
2022/08/17 08:28:51;;;;;;;40.95;26.80;;;21.40;79.60;;;;;;4950383;28;20088;-78
2022/08/17 08:31:25;;;;;;;45.13;27.08;;;21.50;80.00;;;;;;4952885;28;20056;-78
2022/08/17 08:34:03;;;;;;;41.33;27.50;;;21.50;79.60;;;;;;4951987;28;20095;-78
2022/08/17 08:36:41;;;;;;;39.50;27.17;;;21.50;79.50;;;;;;4966896;28;20292;-78
2022/08/17 08:39:15;;;;;;;39.05;25.40;;;21.60;79.30;;;;;;4951729;28;20840;-78
2022/08/17 08:41:50;;;;;;;33.45;23.08;;;21.60;79.50;;;;;;4953039;28;20078;-77
2022/08/17 08:44:34;;;;;;;38.45;25.20;;;21.70;79.60;;;;;;4952802;28;20483;-78
2022/08/17 08:47:09;;;;;;;39.83;24.63;;;21.70;79.40;;;;;;4951776;28;20147;-78
2022/08/17 08:49:57;;;;;;;38.10;25.77;;;21.70;79.60;;;;;;4931272;28;20785;-79
2022/08/17 08:52:40;;;;;;;38.95;25.92;;;21.70;79.50;;;;;;4951246;28;20055;-78
2022/08/17 08:55:15;;;;;;;36.70;24.33;;;21.90;79.40;;;;;;4950914;28;20055;-79
2022/08/17 08:57:49;;;;;;;40.15;25.48;;;21.90;79.10;;;;;;4947654;28;20537;-79
2022/08/17 09:00:22;;;;;;;41.57;26.93;;;21.90;78.90;;;;;;4951270;28;20054;-79
2022/08/17 09:03:25;;;;;;;38.53;25.63;;;21.90;78.80;;;;;;4951589;28;20339;-80
2022/08/17 09:06:10;;;;;;;38.40;25.30;;;22.00;78.50;;;;;;4950811;28;20501;-79
2022/08/17 09:08:51;;;;;;;34.13;23.05;;;22.00;78.40;;;;;;4952068;28;20060;-78
2022/08/17 09:11:24;;;;;;;34.83;23.75;;;22.10;78.20;;;;;;4952184;28;20056;-78
2022/08/17 09:14:01;;;;;;;36.17;25.50;;;22.10;77.80;;;;;;4950929;28;20052;-78
2022/08/17 09:16:35;;;;;;;31.83;21.67;;;22.20;77.50;;;;;;4951465;28;21086;-78
2022/08/17 09:19:09;;;;;;;36.55;24.55;;;22.20;77.30;;;;;;4950331;28;20506;-78
2022/08/17 09:21:43;;;;;;;32.28;21.60;;;22.20;77.30;;;;;;4952014;28;20162;-78
2022/08/17 09:24:16;;;;;;;39.05;24.77;;;22.30;77.00;;;;;;4952123;28;20059;-79
2022/08/17 09:26:48;;;;;;;37.00;25.23;;;22.30;76.90;;;;;;4947597;28;20075;-79
2022/08/17 09:29:17;;;;;;;33.88;23.65;;;22.30;77.10;;;;;;4942517;28;20347;-80
2022/08/17 09:31:51;;;;;;;35.90;23.77;;;22.30;77.00;;;;;;4963124;28;20052;-80
2022/08/17 09:34:24;;;;;;;34.10;22.67;;;22.30;76.90;;;;;;4935715;28;20048;-79
2022/08/17 09:37:00;;;;;;;32.17;23.02;;;22.40;77.10;;;;;;4951924;28;20055;-79
2022/08/17 09:39:34;;;;;;;30.57;22.47;;;22.50;76.90;;;;;;4950343;28;20147;-79
2022/08/17 09:42:07;;;;;;;29.98;22.50;;;22.50;76.60;;;;;;4948681;28;20271;-80
2022/08/17 09:44:39;;;;;;;29.15;20.65;;;22.50;76.20;;;;;;4949524;28;20127;-79
2022/08/17 09:47:16;;;;;;;28.95;20.63;;;22.50;76.10;;;;;;4950598;28;20491;-77
2022/08/17 09:49:48;;;;;;;28.35;20.73;;;22.50;75.80;;;;;;4952188;28;20052;-78
2022/08/17 09:52:19;;;;;;;29.50;21.30;;;22.50;75.90;;;;;;4951630;28;20059;-79
2022/08/17 09:54:49;;;;;;;28.90;20.15;;;22.50;75.70;;;;;;4952339;28;20400;-77
2022/08/17 09:57:36;;;;;;;31.95;22.25;;;22.60;75.60;;;;;;4951012;28;20123;-78
2022/08/17 10:00:15;;;;;;;32.28;24.63;;;22.60;75.50;;;;;;4950656;28;20127;-82
2022/08/17 10:05:57;;;;;;;27.73;19.93;;;22.60;75.10;;;;;;4913005;29;20059;-81
2022/08/17 10:08:32;;;;;;;27.48;18.83;;;22.70;75.20;;;;;;4927872;29;20273;-79
2022/08/17 10:11:22;;;;;;;26.25;18.30;;;22.70;75.00;;;;;;4913349;29;20573;-78
2022/08/17 10:13:55;;;;;;;26.67;20.10;;;22.70;74.80;;;;;;4942308;28;20063;-79
2022/08/17 10:16:29;;;;;;;27.63;19.30;;;22.70;75.00;;;;;;4915658;29;20742;-78
2022/08/17 10:19:13;;;;;;;28.53;20.83;;;22.70;75.00;;;;;;4943875;28;20068;-78
2022/08/17 10:27:20;;;;;;;27.80;19.67;;;22.90;74.80;;;;;;4918625;29;20060;-77
2022/08/17 10:29:52;;;;;;;26.25;18.95;;;22.90;74.60;;;;;;4922478;29;20059;-78
2022/08/17 10:32:32;;;;;;;25.43;18.20;;;23.00;74.40;;;;;;4927225;29;20151;-77
2022/08/17 10:35:24;;;;;;;30.42;21.88;;;23.00;74.20;;;;;;4921123;29;21222;-77
2022/08/17 10:38:14;;;;;;;31.75;20.70;;;23.00;74.20;;;;;;4915827;29;20060;-77
2022/08/17 10:40:47;;;;;;;26.58;20.00;;;23.10;74.20;;;;;;4923349;28;20067;-77
2022/08/17 10:43:28;;;;;;;23.08;16.88;;;23.20;74.00;;;;;;4925291;29;20494;-77
2022/08/17 10:46:00;;;;;;;23.13;16.63;;;23.20;73.30;;;;;;4929583;28;20063;-77
2022/08/17 10:48:32;;;;;;;23.35;17.48;;;23.20;73.20;;;;;;4934656;29;20304;-79
2022/08/17 10:51:07;;;;;;;24.55;17.08;;;23.30;73.20;;;;;;4926235;29;21076;-76
2022/08/17 10:53:59;;;;;;;31.77;18.27;;;23.40;72.80;;;;;;4946571;28;20056;-76
2022/08/17 10:56:49;;;;;;;22.90;16.08;;;23.40;72.60;;;;;;4916094;29;20071;-79
2022/08/17 10:59:49;;;;;;;27.17;17.83;;;23.50;72.30;;;;;;4915269;29;20888;-77
2022/08/17 11:02:26;;;;;;;24.45;18.63;;;23.60;72.20;;;;;;4915936;28;20285;-78
2022/08/17 11:05:28;;;;;;;22.50;16.60;;;23.60;72.20;;;;;;4945951;28;20045;-78
2022/08/17 11:08:27;;;;;;;22.13;16.02;;;23.70;72.00;;;;;;4944991;28;20083;-78
2022/08/17 11:11:22;;;;;;;22.35;16.42;;;23.80;70.60;;;;;;4931739;28;20119;-78
2022/08/17 11:14:05;;;;;;;22.80;16.10;;;23.80;70.30;;;;;;4929025;28;20083;-77
2022/08/17 11:16:48;;;;;;;21.10;15.88;;;23.90;70.00;;;;;;4947044;28;20741;-77
2022/08/17 11:19:40;;;;;;;20.88;15.90;;;23.90;69.40;;;;;;4915735;29;20564;-80
2022/08/17 11:22:38;;;;;;;19.38;14.45;;;24.00;69.30;;;;;;4917746;28;20088;-84
2022/08/17 11:25:15;;;;;;;20.85;15.02;;;24.00;69.00;;;;;;4945903;28;20500;-83
2022/08/17 11:27:43;;;;;;;24.47;16.80;;;24.00;69.00;;;;;;4929662;29;20974;-83
2022/08/17 11:30:13;;;;;;;22.38;16.67;;;24.00;68.90;;;;;;4945373;28;21041;-85
2022/08/17 11:32:43;;;;;;;21.92;15.85;;;24.00;68.80;;;;;;4946855;28;20135;-87
2022/08/17 11:35:29;;;;;;;21.98;15.43;;;24.10;68.70;;;;;;4898239;28;20068;-78
2022/08/17 11:38:16;;;;;;;20.58;15.77;;;24.10;68.40;;;;;;4894214;28;20474;-71
2022/08/17 11:41:06;;;;;;;22.20;16.40;;;24.20;68.40;;;;;;4935612;28;20088;-75
2022/08/17 11:43:54;;;;;;;21.42;15.77;;;24.20;68.40;;;;;;4944885;28;20737;-72
2022/08/17 11:51:32;;;;;;;25.13;18.70;;;24.20;68.30;;;;;;4916456;29;20926;-72
2022/08/17 11:52:35;;;;;;;24.90;17.58;;;24.20;68.50;;;;;;4919512;29;20087;-73
2022/08/17 11:55:03;;;;;;;24.93;18.87;;;24.20;68.50;;;;;;4939093;28;20063;-71
2022/08/17 11:58:00;;;;;;;24.50;18.88;;;24.20;68.70;;;;;;4904455;28;20268;-70
2022/08/17 12:00:51;;;;;;;24.35;18.30;;;24.30;68.30;;;;;;4913933;29;20450;-72
2022/08/17 12:03:25;;;;;;;23.50;18.33;;;24.30;67.90;;;;;;4914223;29;20135;-74
2022/08/17 12:06:03;;;;;;;21.90;16.85;;;24.30;67.70;;;;;;4917013;29;20057;-72
2022/08/17 12:08:32;;;;;;;23.57;18.40;;;24.40;67.40;;;;;;4913497;29;20511;-71
2022/08/17 12:11:06;;;;;;;24.25;18.45;;;24.40;67.40;;;;;;4913160;29;20281;-71
2022/08/17 12:13:43;;;;;;;26.65;19.40;;;24.40;67.40;;;;;;4841822;28;20056;-70
2022/08/17 12:16:14;;;;;;;24.58;17.73;;;24.40;67.30;;;;;;4781944;28;20048;-73
2022/08/17 12:18:49;;;;;;;22.75;17.98;;;24.40;67.30;;;;;;4913122;29;20057;-75
2022/08/17 12:21:42;;;;;;;23.10;18.80;;;24.40;67.30;;;;;;4942297;28;20503;-72
2022/08/17 12:24:28;;;;;;;23.65;18.27;;;24.40;67.50;;;;;;4940367;28;20793;-72
2022/08/17 12:26:57;;;;;;;23.48;17.58;;;24.40;67.50;;;;;;4936271;28;20061;-73
2022/08/17 12:29:28;;;;;;;22.90;17.70;;;24.40;67.50;;;;;;4933918;28;20088;-71
2022/08/17 12:31:57;;;;;;;25.88;18.77;;;24.40;67.10;;;;;;4935519;28;20506;-71
2022/08/17 12:34:27;;;;;;;26.40;19.33;;;24.40;66.90;;;;;;4903331;29;20053;-71
2022/08/17 12:36:59;;;;;;;22.10;17.48;;;24.40;66.80;;;;;;4934428;28;20280;-72
2022/08/17 12:39:28;;;;;;;24.80;19.42;;;24.40;66.90;;;;;;4934763;28;20131;-71
2022/08/17 12:41:58;;;;;;;25.33;18.45;;;24.40;67.20;;;;;;4903866;29;20057;-73
2022/08/17 12:44:28;;;;;;;22.90;16.88;;;24.40;67.20;;;;;;4931702;28;20141;-71
2022/08/17 12:47:00;;;;;;;21.03;15.33;;;24.30;67.00;;;;;;4906156;29;20120;-74
2022/08/17 12:49:32;;;;;;;22.95;17.27;;;24.30;66.70;;;;;;4914952;29;20359;-71
2022/08/17 12:52:12;;;;;;;19.80;15.43;;;24.30;66.40;;;;;;4939992;28;20128;-72
2022/08/17 12:54:58;;;;;;;21.20;15.48;;;24.30;66.30;;;;;;4913391;29;20495;-73
2022/08/17 12:57:32;;;;;;;21.08;16.25;;;24.30;66.30;;;;;;4915623;29;20128;-73
2022/08/17 13:00:07;;;;;;;19.53;15.63;;;24.30;66.10;;;;;;4938758;28;20502;-74
2022/08/17 13:02:45;;;;;;;20.73;16.15;;;24.20;66.10;;;;;;4905254;29;20357;-74
2022/08/17 13:05:20;;;;;;;21.92;16.88;;;24.20;66.00;;;;;;4925996;28;20084;-73
2022/08/17 13:07:49;;;;;;;22.38;16.20;;;24.30;66.10;;;;;;4925589;29;20125;-74
2022/08/17 13:10:21;;;;;;;21.10;16.77;;;24.20;66.10;;;;;;4914572;29;20120;-75
2022/08/17 13:12:49;;;;;;;22.43;16.67;;;24.20;66.00;;;;;;4755533;28;20052;-72
2022/08/17 13:15:24;;;;;;;21.60;16.10;;;24.20;66.20;;;;;;4896930;29;20293;-74
2022/08/17 13:18:02;;;;;;;21.83;16.65;;;24.20;66.30;;;;;;4934824;28;20045;-70
2022/08/17 13:20:30;;;;;;;19.52;15.10;;;24.20;66.40;;;;;;4934974;28;20064;-69
2022/08/17 13:22:59;;;;;;;22.10;15.40;;;24.20;66.50;;;;;;4933732;28;20049;-69
2022/08/17 13:25:28;;;;;;;21.10;14.83;;;24.20;66.50;;;;;;4934152;28;20095;-71
2022/08/17 13:27:56;;;;;;;18.85;14.57;;;24.20;66.40;;;;;;4935709;28;20780;-70